sensor_id;sensor_type;location;lat;lon;timestamp;P1;durP1;ratioP1;P2;durP2;ratioP2
56171;SDS011;42052;41.634;-0.946;2023-05-29T00:01:08;2.85;;;1.73;;
56171;SDS011;42052;41.634;-0.946;2023-05-29T00:03:55;3.97;;;1.20;;
56171;SDS011;42052;41.634;-0.946;2023-05-29T00:06:41;4.05;;;1.48;;
56171;SDS011;42052;41.634;-0.946;2023-05-29T00:09:27;3.00;;;1.67;;
56171;SDS011;42052;41.634;-0.946;2023-05-29T00:12:15;2.67;;;1.50;;
56171;SDS011;42052;41.634;-0.946;2023-05-29T00:15:01;3.00;;;1.63;;
56171;SDS011;42052;41.634;-0.946;2023-05-29T00:17:50;3.22;;;1.58;;
56171;SDS011;42052;41.634;-0.946;2023-05-29T00:20:37;3.30;;;1.65;;
56171;SDS011;42052;41.634;-0.946;2023-05-29T00:23:23;3.63;;;1.65;;
56171;SDS011;42052;41.634;-0.946;2023-05-29T00:26:09;2.92;;;1.77;;
56171;SDS011;42052;41.634;-0.946;2023-05-29T00:28:55;2.78;;;1.40;;
56171;SDS011;42052;41.634;-0.946;2023-05-29T00:31:42;4.22;;;1.58;;
56171;SDS011;42052;41.634;-0.946;2023-05-29T00:34:28;2.55;;;1.42;;
56171;SDS011;42052;41.634;-0.946;2023-05-29T00:37:14;2.55;;;1.52;;
56171;SDS011;42052;41.634;-0.946;2023-05-29T00:40:00;3.20;;;1.58;;
56171;SDS011;42052;41.634;-0.946;2023-05-29T00:42:46;3.30;;;1.55;;
56171;SDS011;42052;41.634;-0.946;2023-05-29T00:45:32;3.28;;;1.48;;
56171;SDS011;42052;41.634;-0.946;2023-05-29T00:48:22;4.05;;;1.70;;
56171;SDS011;42052;41.634;-0.946;2023-05-29T00:51:09;3.53;;;1.58;;
56171;SDS011;42052;41.634;-0.946;2023-05-29T00:53:57;3.67;;;1.95;;
56171;SDS011;42052;41.634;-0.946;2023-05-29T00:56:44;3.00;;;1.73;;
56171;SDS011;42052;41.634;-0.946;2023-05-29T00:59:31;4.30;;;1.67;;
56171;SDS011;42052;41.634;-0.946;2023-05-29T01:02:18;3.15;;;1.77;;
56171;SDS011;42052;41.634;-0.946;2023-05-29T01:05:06;2.88;;;1.60;;
56171;SDS011;42052;41.634;-0.946;2023-05-29T01:07:55;3.38;;;1.65;;
56171;SDS011;42052;41.634;-0.946;2023-05-29T01:10:41;2.30;;;1.65;;
56171;SDS011;42052;41.634;-0.946;2023-05-29T01:13:29;3.65;;;1.70;;
56171;SDS011;42052;41.634;-0.946;2023-05-29T01:16:26;3.20;;;1.65;;
56171;SDS011;42052;41.634;-0.946;2023-05-29T01:22:54;3.78;;;1.90;;
56171;SDS011;42052;41.634;-0.946;2023-05-29T01:26:11;3.00;;;1.65;;
56171;SDS011;42052;41.634;-0.946;2023-05-29T01:28:58;4.07;;;1.60;;
56171;SDS011;42052;41.634;-0.946;2023-05-29T01:31:48;4.07;;;1.55;;
56171;SDS011;42052;41.634;-0.946;2023-05-29T01:34:35;2.85;;;1.70;;
56171;SDS011;42052;41.634;-0.946;2023-05-29T01:37:21;4.00;;;1.98;;
56171;SDS011;42052;41.634;-0.946;2023-05-29T01:40:08;4.25;;;1.52;;
56171;SDS011;42052;41.634;-0.946;2023-05-29T01:42:54;3.25;;;1.67;;
56171;SDS011;42052;41.634;-0.946;2023-05-29T01:45:41;3.55;;;1.70;;
56171;SDS011;42052;41.634;-0.946;2023-05-29T01:48:27;3.95;;;1.60;;
56171;SDS011;42052;41.634;-0.946;2023-05-29T01:51:14;4.72;;;1.83;;
56171;SDS011;42052;41.634;-0.946;2023-05-29T01:54:00;6.20;;;2.20;;
56171;SDS011;42052;41.634;-0.946;2023-05-29T01:56:47;3.65;;;1.60;;
56171;SDS011;42052;41.634;-0.946;2023-05-29T01:59:34;3.20;;;1.80;;
56171;SDS011;42052;41.634;-0.946;2023-05-29T02:02:22;3.28;;;1.70;;
56171;SDS011;42052;41.634;-0.946;2023-05-29T02:05:08;2.90;;;1.70;;
56171;SDS011;42052;41.634;-0.946;2023-05-29T02:07:55;3.53;;;1.80;;
56171;SDS011;42052;41.634;-0.946;2023-05-29T02:10:41;4.05;;;1.77;;
56171;SDS011;42052;41.634;-0.946;2023-05-29T02:13:27;3.17;;;1.58;;
56171;SDS011;42052;41.634;-0.946;2023-05-29T02:16:14;4.13;;;1.60;;
56171;SDS011;42052;41.634;-0.946;2023-05-29T02:19:00;4.32;;;1.63;;
56171;SDS011;42052;41.634;-0.946;2023-05-29T02:21:47;2.75;;;1.33;;
56171;SDS011;42052;41.634;-0.946;2023-05-29T02:24:34;4.13;;;1.90;;
56171;SDS011;42052;41.634;-0.946;2023-05-29T02:27:20;3.78;;;1.88;;
56171;SDS011;42052;41.634;-0.946;2023-05-29T02:30:06;4.25;;;1.80;;
56171;SDS011;42052;41.634;-0.946;2023-05-29T02:32:53;3.17;;;1.45;;
56171;SDS011;42052;41.634;-0.946;2023-05-29T02:35:40;3.42;;;1.50;;
56171;SDS011;42052;41.634;-0.946;2023-05-29T02:38:26;2.90;;;1.63;;
56171;SDS011;42052;41.634;-0.946;2023-05-29T02:41:12;2.92;;;1.45;;
56171;SDS011;42052;41.634;-0.946;2023-05-29T02:43:58;3.45;;;1.67;;
56171;SDS011;42052;41.634;-0.946;2023-05-29T02:46:45;3.28;;;1.70;;
56171;SDS011;42052;41.634;-0.946;2023-05-29T02:49:31;3.45;;;1.60;;
56171;SDS011;42052;41.634;-0.946;2023-05-29T02:52:17;3.03;;;1.70;;
56171;SDS011;42052;41.634;-0.946;2023-05-29T02:55:03;4.20;;;2.00;;
56171;SDS011;42052;41.634;-0.946;2023-05-29T02:57:51;3.25;;;1.63;;
56171;SDS011;42052;41.634;-0.946;2023-05-29T03:00:40;3.53;;;1.70;;
56171;SDS011;42052;41.634;-0.946;2023-05-29T03:03:26;4.07;;;1.98;;
56171;SDS011;42052;41.634;-0.946;2023-05-29T03:06:12;4.13;;;1.90;;
56171;SDS011;42052;41.634;-0.946;2023-05-29T03:08:58;4.35;;;1.70;;
56171;SDS011;42052;41.634;-0.946;2023-05-29T03:11:44;4.57;;;1.95;;
56171;SDS011;42052;41.634;-0.946;2023-05-29T03:14:33;3.15;;;1.60;;
56171;SDS011;42052;41.634;-0.946;2023-05-29T03:17:21;5.03;;;1.92;;
56171;SDS011;42052;41.634;-0.946;2023-05-29T03:20:07;6.13;;;1.73;;
56171;SDS011;42052;41.634;-0.946;2023-05-29T03:22:53;3.53;;;1.60;;
56171;SDS011;42052;41.634;-0.946;2023-05-29T03:25:40;2.53;;;1.48;;
56171;SDS011;42052;41.634;-0.946;2023-05-29T03:28:26;2.53;;;1.58;;
56171;SDS011;42052;41.634;-0.946;2023-05-29T03:31:12;4.00;;;1.73;;
56171;SDS011;42052;41.634;-0.946;2023-05-29T03:33:58;3.97;;;1.70;;
56171;SDS011;42052;41.634;-0.946;2023-05-29T03:36:45;4.43;;;1.80;;
56171;SDS011;42052;41.634;-0.946;2023-05-29T03:39:31;3.55;;;1.85;;
56171;SDS011;42052;41.634;-0.946;2023-05-29T03:42:17;3.45;;;1.73;;
56171;SDS011;42052;41.634;-0.946;2023-05-29T03:45:04;3.90;;;1.67;;
56171;SDS011;42052;41.634;-0.946;2023-05-29T03:47:50;3.80;;;1.67;;
56171;SDS011;42052;41.634;-0.946;2023-05-29T03:50:36;3.58;;;1.58;;
56171;SDS011;42052;41.634;-0.946;2023-05-29T03:53:22;5.38;;;1.88;;
56171;SDS011;42052;41.634;-0.946;2023-05-29T03:56:08;4.00;;;1.70;;
56171;SDS011;42052;41.634;-0.946;2023-05-29T03:58:54;5.18;;;1.50;;
56171;SDS011;42052;41.634;-0.946;2023-05-29T04:01:40;4.55;;;1.70;;
56171;SDS011;42052;41.634;-0.946;2023-05-29T04:04:26;3.38;;;1.60;;
56171;SDS011;42052;41.634;-0.946;2023-05-29T04:07:12;3.80;;;1.95;;
56171;SDS011;42052;41.634;-0.946;2023-05-29T04:09:58;3.33;;;1.70;;
56171;SDS011;42052;41.634;-0.946;2023-05-29T04:12:45;2.67;;;1.70;;
56171;SDS011;42052;41.634;-0.946;2023-05-29T04:15:31;3.28;;;1.80;;
56171;SDS011;42052;41.634;-0.946;2023-05-29T04:18:19;4.28;;;1.95;;
56171;SDS011;42052;41.634;-0.946;2023-05-29T04:21:05;3.95;;;1.98;;
56171;SDS011;42052;41.634;-0.946;2023-05-29T04:23:52;4.65;;;1.85;;
56171;SDS011;42052;41.634;-0.946;2023-05-29T04:26:38;5.45;;;1.73;;
56171;SDS011;42052;41.634;-0.946;2023-05-29T04:29:26;2.60;;;1.73;;
56171;SDS011;42052;41.634;-0.946;2023-05-29T04:32:14;3.58;;;1.52;;
56171;SDS011;42052;41.634;-0.946;2023-05-29T04:35:00;5.65;;;1.83;;
56171;SDS011;42052;41.634;-0.946;2023-05-29T04:37:48;3.08;;;1.63;;
56171;SDS011;42052;41.634;-0.946;2023-05-29T04:40:34;4.80;;;1.77;;
56171;SDS011;42052;41.634;-0.946;2023-05-29T04:43:21;3.97;;;1.80;;
56171;SDS011;42052;41.634;-0.946;2023-05-29T04:46:08;3.88;;;1.88;;
56171;SDS011;42052;41.634;-0.946;2023-05-29T04:48:58;3.22;;;1.60;;
56171;SDS011;42052;41.634;-0.946;2023-05-29T04:51:44;3.67;;;1.92;;
56171;SDS011;42052;41.634;-0.946;2023-05-29T04:54:31;8.13;;;1.80;;
56171;SDS011;42052;41.634;-0.946;2023-05-29T04:57:19;4.00;;;1.75;;
56171;SDS011;42052;41.634;-0.946;2023-05-29T05:00:05;3.13;;;1.83;;
56171;SDS011;42052;41.634;-0.946;2023-05-29T05:02:59;3.50;;;1.77;;
56171;SDS011;42052;41.634;-0.946;2023-05-29T05:05:45;3.85;;;1.90;;
56171;SDS011;42052;41.634;-0.946;2023-05-29T05:08:31;4.00;;;1.75;;
56171;SDS011;42052;41.634;-0.946;2023-05-29T05:11:18;5.00;;;1.90;;
56171;SDS011;42052;41.634;-0.946;2023-05-29T05:14:04;4.68;;;1.85;;
56171;SDS011;42052;41.634;-0.946;2023-05-29T05:16:50;4.38;;;1.80;;
56171;SDS011;42052;41.634;-0.946;2023-05-29T05:19:36;4.72;;;1.80;;
56171;SDS011;42052;41.634;-0.946;2023-05-29T05:22:22;10.73;;;3.20;;
56171;SDS011;42052;41.634;-0.946;2023-05-29T05:25:08;20.38;;;4.43;;
56171;SDS011;42052;41.634;-0.946;2023-05-29T05:27:54;23.48;;;5.47;;
56171;SDS011;42052;41.634;-0.946;2023-05-29T05:30:40;24.77;;;5.45;;
56171;SDS011;42052;41.634;-0.946;2023-05-29T05:33:27;28.05;;;5.43;;
56171;SDS011;42052;41.634;-0.946;2023-05-29T05:36:13;28.60;;;6.15;;
56171;SDS011;42052;41.634;-0.946;2023-05-29T05:39:00;29.50;;;7.15;;
56171;SDS011;42052;41.634;-0.946;2023-05-29T05:41:46;39.80;;;7.43;;
56171;SDS011;42052;41.634;-0.946;2023-05-29T05:44:32;28.58;;;6.97;;
56171;SDS011;42052;41.634;-0.946;2023-05-29T05:47:18;32.60;;;7.70;;
56171;SDS011;42052;41.634;-0.946;2023-05-29T05:50:04;38.45;;;8.63;;
56171;SDS011;42052;41.634;-0.946;2023-05-29T05:52:51;33.58;;;7.95;;
56171;SDS011;42052;41.634;-0.946;2023-05-29T05:55:37;30.95;;;7.13;;
56171;SDS011;42052;41.634;-0.946;2023-05-29T05:58:23;38.17;;;8.52;;
56171;SDS011;42052;41.634;-0.946;2023-05-29T06:01:09;37.13;;;8.15;;
56171;SDS011;42052;41.634;-0.946;2023-05-29T06:03:55;35.38;;;7.88;;
56171;SDS011;42052;41.634;-0.946;2023-05-29T06:06:42;33.97;;;7.65;;
56171;SDS011;42052;41.634;-0.946;2023-05-29T06:09:28;30.63;;;7.75;;
56171;SDS011;42052;41.634;-0.946;2023-05-29T06:12:14;33.55;;;7.68;;
56171;SDS011;42052;41.634;-0.946;2023-05-29T06:15:01;29.88;;;7.88;;
56171;SDS011;42052;41.634;-0.946;2023-05-29T06:17:49;29.83;;;7.47;;
56171;SDS011;42052;41.634;-0.946;2023-05-29T06:20:37;28.00;;;7.38;;
56171;SDS011;42052;41.634;-0.946;2023-05-29T06:23:23;25.17;;;6.78;;
56171;SDS011;42052;41.634;-0.946;2023-05-29T06:26:09;22.35;;;6.45;;
56171;SDS011;42052;41.634;-0.946;2023-05-29T06:28:57;22.75;;;7.18;;
56171;SDS011;42052;41.634;-0.946;2023-05-29T06:31:43;29.52;;;7.57;;
56171;SDS011;42052;41.634;-0.946;2023-05-29T06:34:29;27.38;;;7.05;;
56171;SDS011;42052;41.634;-0.946;2023-05-29T06:37:15;21.02;;;6.50;;
56171;SDS011;42052;41.634;-0.946;2023-05-29T06:40:01;26.40;;;6.93;;
56171;SDS011;42052;41.634;-0.946;2023-05-29T06:42:47;23.13;;;6.63;;
56171;SDS011;42052;41.634;-0.946;2023-05-29T06:45:33;21.30;;;6.30;;
56171;SDS011;42052;41.634;-0.946;2023-05-29T06:48:19;25.90;;;6.95;;
56171;SDS011;42052;41.634;-0.946;2023-05-29T06:51:06;20.42;;;6.05;;
56171;SDS011;42052;41.634;-0.946;2023-05-29T06:53:54;23.45;;;6.45;;
56171;SDS011;42052;41.634;-0.946;2023-05-29T06:56:40;25.27;;;6.47;;
56171;SDS011;42052;41.634;-0.946;2023-05-29T06:59:27;22.58;;;5.95;;
56171;SDS011;42052;41.634;-0.946;2023-05-29T07:02:13;22.10;;;6.13;;
56171;SDS011;42052;41.634;-0.946;2023-05-29T07:04:59;20.13;;;5.88;;
56171;SDS011;42052;41.634;-0.946;2023-05-29T07:07:45;16.27;;;5.53;;
56171;SDS011;42052;41.634;-0.946;2023-05-29T07:10:31;17.42;;;5.60;;
56171;SDS011;42052;41.634;-0.946;2023-05-29T07:13:17;17.88;;;5.63;;
56171;SDS011;42052;41.634;-0.946;2023-05-29T07:16:03;17.52;;;5.40;;
56171;SDS011;42052;41.634;-0.946;2023-05-29T07:18:49;18.05;;;5.45;;
56171;SDS011;42052;41.634;-0.946;2023-05-29T07:21:35;17.13;;;5.22;;
56171;SDS011;42052;41.634;-0.946;2023-05-29T07:24:22;20.60;;;6.00;;
56171;SDS011;42052;41.634;-0.946;2023-05-29T07:27:08;17.58;;;5.07;;
56171;SDS011;42052;41.634;-0.946;2023-05-29T07:29:54;17.05;;;5.25;;
56171;SDS011;42052;41.634;-0.946;2023-05-29T07:32:40;14.45;;;4.80;;
56171;SDS011;42052;41.634;-0.946;2023-05-29T07:35:26;16.45;;;5.43;;
56171;SDS011;42052;41.634;-0.946;2023-05-29T07:38:12;16.20;;;4.82;;
56171;SDS011;42052;41.634;-0.946;2023-05-29T07:40:59;13.73;;;5.18;;
56171;SDS011;42052;41.634;-0.946;2023-05-29T07:43:45;15.05;;;4.95;;
56171;SDS011;42052;41.634;-0.946;2023-05-29T07:46:36;12.48;;;4.45;;
56171;SDS011;42052;41.634;-0.946;2023-05-29T07:49:22;17.77;;;5.38;;
56171;SDS011;42052;41.634;-0.946;2023-05-29T07:52:08;14.63;;;4.60;;
56171;SDS011;42052;41.634;-0.946;2023-05-29T07:54:54;14.10;;;4.70;;
56171;SDS011;42052;41.634;-0.946;2023-05-29T07:57:40;16.70;;;4.75;;
56171;SDS011;42052;41.634;-0.946;2023-05-29T08:00:27;13.05;;;4.70;;
56171;SDS011;42052;41.634;-0.946;2023-05-29T08:03:13;14.10;;;4.63;;
56171;SDS011;42052;41.634;-0.946;2023-05-29T08:06:00;16.33;;;5.05;;
56171;SDS011;42052;41.634;-0.946;2023-05-29T08:08:46;13.43;;;4.30;;
56171;SDS011;42052;41.634;-0.946;2023-05-29T08:11:33;12.52;;;4.20;;
56171;SDS011;42052;41.634;-0.946;2023-05-29T08:14:19;11.90;;;4.60;;
56171;SDS011;42052;41.634;-0.946;2023-05-29T08:17:05;11.63;;;4.63;;
56171;SDS011;42052;41.634;-0.946;2023-05-29T08:19:51;9.18;;;3.70;;
56171;SDS011;42052;41.634;-0.946;2023-05-29T08:22:38;14.65;;;4.35;;
56171;SDS011;42052;41.634;-0.946;2023-05-29T08:25:24;13.63;;;4.20;;
56171;SDS011;42052;41.634;-0.946;2023-05-29T08:28:11;11.10;;;4.00;;
56171;SDS011;42052;41.634;-0.946;2023-05-29T08:30:57;13.93;;;4.43;;
56171;SDS011;42052;41.634;-0.946;2023-05-29T08:33:43;10.52;;;4.28;;
56171;SDS011;42052;41.634;-0.946;2023-05-29T08:36:29;11.02;;;4.00;;
56171;SDS011;42052;41.634;-0.946;2023-05-29T08:39:17;13.13;;;4.50;;
56171;SDS011;42052;41.634;-0.946;2023-05-29T08:45:01;12.20;;;3.90;;
56171;SDS011;42052;41.634;-0.946;2023-05-29T08:47:53;13.68;;;4.00;;
56171;SDS011;42052;41.634;-0.946;2023-05-29T08:50:45;10.57;;;4.05;;
56171;SDS011;42052;41.634;-0.946;2023-05-29T08:53:31;9.55;;;4.18;;
56171;SDS011;42052;41.634;-0.946;2023-05-29T08:56:18;8.82;;;3.63;;
56171;SDS011;42052;41.634;-0.946;2023-05-29T08:59:04;9.82;;;3.80;;
56171;SDS011;42052;41.634;-0.946;2023-05-29T09:01:51;8.95;;;3.83;;
56171;SDS011;42052;41.634;-0.946;2023-05-29T09:04:37;9.93;;;3.70;;
56171;SDS011;42052;41.634;-0.946;2023-05-29T09:07:26;8.68;;;3.50;;
56171;SDS011;42052;41.634;-0.946;2023-05-29T09:10:12;9.55;;;3.70;;
56171;SDS011;42052;41.634;-0.946;2023-05-29T09:12:58;10.05;;;3.83;;
56171;SDS011;42052;41.634;-0.946;2023-05-29T09:15:45;9.63;;;3.53;;
56171;SDS011;42052;41.634;-0.946;2023-05-29T09:18:32;9.75;;;3.70;;
56171;SDS011;42052;41.634;-0.946;2023-05-29T09:21:36;7.47;;;3.25;;
56171;SDS011;42052;41.634;-0.946;2023-05-29T09:24:23;9.40;;;3.65;;
56171;SDS011;42052;41.634;-0.946;2023-05-29T09:27:10;8.48;;;3.30;;
56171;SDS011;42052;41.634;-0.946;2023-05-29T09:29:59;9.25;;;3.50;;
56171;SDS011;42052;41.634;-0.946;2023-05-29T09:32:45;8.93;;;3.30;;
56171;SDS011;42052;41.634;-0.946;2023-05-29T09:35:43;8.60;;;3.47;;
56171;SDS011;42052;41.634;-0.946;2023-05-29T09:38:30;8.65;;;3.20;;
56171;SDS011;42052;41.634;-0.946;2023-05-29T09:41:23;9.48;;;3.63;;
56171;SDS011;42052;41.634;-0.946;2023-05-29T09:44:12;8.88;;;3.35;;
56171;SDS011;42052;41.634;-0.946;2023-05-29T09:46:59;9.52;;;3.47;;
56171;SDS011;42052;41.634;-0.946;2023-05-29T09:49:46;8.00;;;3.20;;
56171;SDS011;42052;41.634;-0.946;2023-05-29T09:52:32;7.50;;;3.30;;
56171;SDS011;42052;41.634;-0.946;2023-05-29T09:55:20;7.28;;;3.25;;
56171;SDS011;42052;41.634;-0.946;2023-05-29T09:58:06;9.85;;;3.58;;
56171;SDS011;42052;41.634;-0.946;2023-05-29T10:00:53;6.47;;;3.10;;
56171;SDS011;42052;41.634;-0.946;2023-05-29T10:03:41;6.97;;;3.40;;
56171;SDS011;42052;41.634;-0.946;2023-05-29T10:06:28;8.50;;;3.30;;
56171;SDS011;42052;41.634;-0.946;2023-05-29T10:09:15;6.35;;;3.08;;
56171;SDS011;42052;41.634;-0.946;2023-05-29T10:12:04;7.32;;;3.20;;
56171;SDS011;42052;41.634;-0.946;2023-05-29T10:14:56;6.38;;;2.95;;
56171;SDS011;42052;41.634;-0.946;2023-05-29T10:17:48;6.78;;;2.97;;
56171;SDS011;42052;41.634;-0.946;2023-05-29T10:20:42;10.30;;;3.28;;
56171;SDS011;42052;41.634;-0.946;2023-05-29T10:23:30;6.45;;;3.10;;
56171;SDS011;42052;41.634;-0.946;2023-05-29T10:26:19;6.57;;;3.20;;
56171;SDS011;42052;41.634;-0.946;2023-05-29T10:35:29;6.40;;;2.97;;
56171;SDS011;42052;41.634;-0.946;2023-05-29T10:38:31;7.00;;;3.13;;
56171;SDS011;42052;41.634;-0.946;2023-05-29T10:47:23;7.68;;;2.72;;
56171;SDS011;42052;41.634;-0.946;2023-05-29T10:50:09;8.45;;;3.20;;
56171;SDS011;42052;41.634;-0.946;2023-05-29T10:52:55;5.68;;;2.72;;
56171;SDS011;42052;41.634;-0.946;2023-05-29T10:55:41;6.97;;;2.80;;
56171;SDS011;42052;41.634;-0.946;2023-05-29T10:58:28;5.53;;;2.60;;
56171;SDS011;42052;41.634;-0.946;2023-05-29T11:01:16;6.60;;;3.08;;
56171;SDS011;42052;41.634;-0.946;2023-05-29T11:07:02;5.13;;;2.80;;
56171;SDS011;42052;41.634;-0.946;2023-05-29T11:09:51;6.10;;;3.13;;
56171;SDS011;42052;41.634;-0.946;2023-05-29T11:12:55;6.57;;;2.88;;
56171;SDS011;42052;41.634;-0.946;2023-05-29T11:15:43;6.15;;;2.70;;
56171;SDS011;42052;41.634;-0.946;2023-05-29T11:18:29;5.88;;;2.90;;
56171;SDS011;42052;41.634;-0.946;2023-05-29T11:21:21;5.50;;;2.90;;
56171;SDS011;42052;41.634;-0.946;2023-05-29T11:24:29;6.47;;;2.70;;
56171;SDS011;42052;41.634;-0.946;2023-05-29T11:27:16;5.35;;;2.60;;
56171;SDS011;42052;41.634;-0.946;2023-05-29T11:30:03;7.43;;;2.90;;
56171;SDS011;42052;41.634;-0.946;2023-05-29T11:32:51;5.25;;;2.47;;
56171;SDS011;42052;41.634;-0.946;2023-05-29T11:35:38;4.95;;;2.50;;
56171;SDS011;42052;41.634;-0.946;2023-05-29T11:38:28;5.15;;;2.83;;
56171;SDS011;42052;41.634;-0.946;2023-05-29T11:41:16;4.93;;;2.47;;
56171;SDS011;42052;41.634;-0.946;2023-05-29T11:44:04;4.72;;;2.50;;
56171;SDS011;42052;41.634;-0.946;2023-05-29T11:47:03;4.30;;;2.25;;
56171;SDS011;42052;41.634;-0.946;2023-05-29T11:49:50;4.53;;;2.60;;
56171;SDS011;42052;41.634;-0.946;2023-05-29T11:52:44;5.85;;;2.47;;
56171;SDS011;42052;41.634;-0.946;2023-05-29T11:55:31;3.95;;;2.40;;
56171;SDS011;42052;41.634;-0.946;2023-05-29T11:58:17;5.25;;;2.50;;
56171;SDS011;42052;41.634;-0.946;2023-05-29T12:01:06;5.05;;;2.58;;
56171;SDS011;42052;41.634;-0.946;2023-05-29T12:03:55;4.90;;;2.58;;
56171;SDS011;42052;41.634;-0.946;2023-05-29T12:06:41;5.78;;;2.42;;
56171;SDS011;42052;41.634;-0.946;2023-05-29T12:09:28;4.80;;;2.33;;
56171;SDS011;42052;41.634;-0.946;2023-05-29T12:12:15;5.13;;;2.33;;
56171;SDS011;42052;41.634;-0.946;2023-05-29T12:15:01;7.78;;;2.63;;
56171;SDS011;42052;41.634;-0.946;2023-05-29T12:17:51;4.80;;;2.28;;
56171;SDS011;42052;41.634;-0.946;2023-05-29T12:20:38;4.38;;;2.47;;
56171;SDS011;42052;41.634;-0.946;2023-05-29T12:23:24;4.97;;;2.70;;
56171;SDS011;42052;41.634;-0.946;2023-05-29T12:26:10;4.05;;;2.30;;
56171;SDS011;42052;41.634;-0.946;2023-05-29T12:28:57;5.00;;;2.35;;
56171;SDS011;42052;41.634;-0.946;2023-05-29T12:31:47;3.20;;;2.17;;
56171;SDS011;42052;41.634;-0.946;2023-05-29T12:34:42;4.30;;;2.50;;
56171;SDS011;42052;41.634;-0.946;2023-05-29T12:37:28;5.75;;;2.42;;
56171;SDS011;42052;41.634;-0.946;2023-05-29T12:40:19;3.35;;;2.03;;
56171;SDS011;42052;41.634;-0.946;2023-05-29T12:43:06;5.25;;;2.67;;
56171;SDS011;42052;41.634;-0.946;2023-05-29T12:45:55;6.38;;;2.67;;
56171;SDS011;42052;41.634;-0.946;2023-05-29T12:48:43;6.10;;;2.92;;
56171;SDS011;42052;41.634;-0.946;2023-05-29T12:51:29;7.03;;;3.00;;
56171;SDS011;42052;41.634;-0.946;2023-05-29T12:54:17;7.28;;;3.00;;
56171;SDS011;42052;41.634;-0.946;2023-05-29T12:57:03;6.38;;;3.30;;
56171;SDS011;42052;41.634;-0.946;2023-05-29T12:59:49;6.13;;;3.13;;
56171;SDS011;42052;41.634;-0.946;2023-05-29T13:02:35;6.70;;;2.83;;
56171;SDS011;42052;41.634;-0.946;2023-05-29T13:05:22;6.95;;;3.10;;
56171;SDS011;42052;41.634;-0.946;2023-05-29T13:08:08;5.03;;;2.92;;
56171;SDS011;42052;41.634;-0.946;2023-05-29T13:10:54;6.22;;;2.85;;
56171;SDS011;42052;41.634;-0.946;2023-05-29T13:13:40;5.82;;;3.13;;
56171;SDS011;42052;41.634;-0.946;2023-05-29T13:16:27;4.85;;;2.83;;
56171;SDS011;42052;41.634;-0.946;2023-05-29T13:19:13;6.70;;;3.15;;
56171;SDS011;42052;41.634;-0.946;2023-05-29T13:21:59;5.95;;;3.10;;
56171;SDS011;42052;41.634;-0.946;2023-05-29T13:24:45;6.93;;;3.30;;
56171;SDS011;42052;41.634;-0.946;2023-05-29T13:27:32;5.63;;;2.70;;
56171;SDS011;42052;41.634;-0.946;2023-05-29T13:30:20;5.30;;;2.58;;
56171;SDS011;42052;41.634;-0.946;2023-05-29T13:33:07;5.57;;;2.70;;
56171;SDS011;42052;41.634;-0.946;2023-05-29T13:35:53;7.07;;;2.95;;
56171;SDS011;42052;41.634;-0.946;2023-05-29T13:38:39;7.07;;;3.15;;
56171;SDS011;42052;41.634;-0.946;2023-05-29T13:41:25;6.28;;;2.85;;
56171;SDS011;42052;41.634;-0.946;2023-05-29T13:44:11;4.82;;;2.63;;
56171;SDS011;42052;41.634;-0.946;2023-05-29T13:46:57;6.55;;;2.83;;
56171;SDS011;42052;41.634;-0.946;2023-05-29T13:49:43;6.00;;;3.03;;
56171;SDS011;42052;41.634;-0.946;2023-05-29T13:52:30;5.88;;;2.88;;
56171;SDS011;42052;41.634;-0.946;2023-05-29T13:55:16;5.72;;;2.67;;
56171;SDS011;42052;41.634;-0.946;2023-05-29T13:58:02;5.65;;;3.10;;
56171;SDS011;42052;41.634;-0.946;2023-05-29T14:00:48;5.47;;;2.90;;
56171;SDS011;42052;41.634;-0.946;2023-05-29T14:03:34;6.00;;;2.70;;
56171;SDS011;42052;41.634;-0.946;2023-05-29T14:06:21;5.85;;;3.10;;
56171;SDS011;42052;41.634;-0.946;2023-05-29T14:09:07;5.22;;;2.80;;
56171;SDS011;42052;41.634;-0.946;2023-05-29T14:12:00;4.60;;;2.60;;
56171;SDS011;42052;41.634;-0.946;2023-05-29T14:14:47;5.20;;;2.67;;
56171;SDS011;42052;41.634;-0.946;2023-05-29T14:17:33;5.20;;;3.00;;
56171;SDS011;42052;41.634;-0.946;2023-05-29T14:20:19;5.43;;;2.70;;
56171;SDS011;42052;41.634;-0.946;2023-05-29T14:23:05;6.38;;;2.75;;
56171;SDS011;42052;41.634;-0.946;2023-05-29T14:25:54;4.88;;;2.55;;
56171;SDS011;42052;41.634;-0.946;2023-05-29T14:28:40;4.43;;;2.63;;
56171;SDS011;42052;41.634;-0.946;2023-05-29T14:31:26;4.80;;;2.53;;
56171;SDS011;42052;41.634;-0.946;2023-05-29T14:34:14;5.53;;;2.67;;
56171;SDS011;42052;41.634;-0.946;2023-05-29T14:37:00;4.80;;;2.33;;
56171;SDS011;42052;41.634;-0.946;2023-05-29T14:39:46;4.85;;;2.60;;
56171;SDS011;42052;41.634;-0.946;2023-05-29T14:42:32;5.40;;;2.50;;
56171;SDS011;42052;41.634;-0.946;2023-05-29T14:45:18;5.68;;;2.50;;
56171;SDS011;42052;41.634;-0.946;2023-05-29T14:48:04;6.57;;;3.00;;
56171;SDS011;42052;41.634;-0.946;2023-05-29T14:50:50;6.13;;;2.75;;
56171;SDS011;42052;41.634;-0.946;2023-05-29T14:53:36;5.25;;;2.80;;
56171;SDS011;42052;41.634;-0.946;2023-05-29T14:56:23;4.85;;;2.75;;
56171;SDS011;42052;41.634;-0.946;2023-05-29T14:59:09;6.60;;;2.67;;
56171;SDS011;42052;41.634;-0.946;2023-05-29T15:01:56;4.20;;;2.50;;
56171;SDS011;42052;41.634;-0.946;2023-05-29T15:04:44;5.15;;;2.67;;
56171;SDS011;42052;41.634;-0.946;2023-05-29T15:07:30;5.35;;;2.78;;
56171;SDS011;42052;41.634;-0.946;2023-05-29T15:10:19;4.65;;;2.70;;
56171;SDS011;42052;41.634;-0.946;2023-05-29T15:13:06;4.72;;;2.72;;
56171;SDS011;42052;41.634;-0.946;2023-05-29T15:15:52;4.97;;;2.80;;
56171;SDS011;42052;41.634;-0.946;2023-05-29T15:18:38;5.43;;;2.47;;
56171;SDS011;42052;41.634;-0.946;2023-05-29T15:21:24;6.05;;;2.80;;
56171;SDS011;42052;41.634;-0.946;2023-05-29T15:24:10;4.65;;;2.50;;
56171;SDS011;42052;41.634;-0.946;2023-05-29T15:26:56;4.57;;;2.63;;
56171;SDS011;42052;41.634;-0.946;2023-05-29T15:29:43;4.57;;;2.60;;
56171;SDS011;42052;41.634;-0.946;2023-05-29T15:32:29;5.40;;;2.75;;
56171;SDS011;42052;41.634;-0.946;2023-05-29T15:35:15;4.85;;;2.63;;
56171;SDS011;42052;41.634;-0.946;2023-05-29T15:38:01;4.57;;;2.78;;
56171;SDS011;42052;41.634;-0.946;2023-05-29T15:40:47;5.10;;;2.60;;
56171;SDS011;42052;41.634;-0.946;2023-05-29T15:43:33;5.32;;;2.70;;
56171;SDS011;42052;41.634;-0.946;2023-05-29T15:46:19;5.63;;;2.65;;
56171;SDS011;42052;41.634;-0.946;2023-05-29T15:49:06;4.18;;;2.30;;
56171;SDS011;42052;41.634;-0.946;2023-05-29T15:51:52;7.00;;;2.80;;
56171;SDS011;42052;41.634;-0.946;2023-05-29T15:54:38;4.78;;;2.88;;
56171;SDS011;42052;41.634;-0.946;2023-05-29T15:57:24;6.78;;;2.90;;
56171;SDS011;42052;41.634;-0.946;2023-05-29T16:00:10;5.40;;;2.80;;
56171;SDS011;42052;41.634;-0.946;2023-05-29T16:02:57;5.30;;;2.70;;
56171;SDS011;42052;41.634;-0.946;2023-05-29T16:05:43;6.00;;;2.80;;
56171;SDS011;42052;41.634;-0.946;2023-05-29T16:08:29;6.35;;;3.05;;
56171;SDS011;42052;41.634;-0.946;2023-05-29T16:11:15;5.38;;;2.80;;
56171;SDS011;42052;41.634;-0.946;2023-05-29T16:14:01;4.53;;;2.67;;
56171;SDS011;42052;41.634;-0.946;2023-05-29T16:16:47;5.15;;;2.80;;
56171;SDS011;42052;41.634;-0.946;2023-05-29T16:19:34;5.82;;;2.92;;
56171;SDS011;42052;41.634;-0.946;2023-05-29T16:22:20;5.60;;;2.50;;
56171;SDS011;42052;41.634;-0.946;2023-05-29T16:25:08;6.25;;;2.88;;
56171;SDS011;42052;41.634;-0.946;2023-05-29T16:27:55;5.78;;;2.85;;
56171;SDS011;42052;41.634;-0.946;2023-05-29T16:30:41;4.65;;;2.70;;
56171;SDS011;42052;41.634;-0.946;2023-05-29T16:33:27;4.53;;;2.83;;
56171;SDS011;42052;41.634;-0.946;2023-05-29T16:36:13;5.22;;;2.58;;
56171;SDS011;42052;41.634;-0.946;2023-05-29T16:39:01;6.32;;;2.67;;
56171;SDS011;42052;41.634;-0.946;2023-05-29T16:41:47;6.15;;;2.97;;
56171;SDS011;42052;41.634;-0.946;2023-05-29T16:44:34;3.78;;;2.30;;
56171;SDS011;42052;41.634;-0.946;2023-05-29T16:47:20;5.93;;;2.58;;
56171;SDS011;42052;41.634;-0.946;2023-05-29T16:50:06;4.88;;;2.55;;